Time;durP1;ratioP1;P1;durP2;ratioP2;P2;SDS_P1;SDS_P2;PMS_P1;PMS_P2;Temp;Humidity;BMP_temperature;BMP_pressure;BME280_temperature;BME280_humidity;BME280_pressure;Samples;Min_cycle;Max_cycle;Signal;HPM_P1;HPM_P2
2022/08/27 00:02:05;;;;;;;;;;;25.70;99.90;;;;;;5067143;28;19931;-74
2022/08/27 00:04:31;;;;;;;;;;;25.80;99.90;;;;;;5085153;28;19916;-74
2022/08/27 00:06:57;;;;;;;;;;;25.70;99.90;;;;;;5082817;28;19923;-72
2022/08/27 00:09:23;;;;;;;;;;;25.80;99.90;;;;;;5092754;28;19951;-75
2022/08/27 00:11:49;;;;;;;;;;;25.80;99.90;;;;;;5101858;28;19928;-72
2022/08/27 00:14:14;;;;;;;;;;;25.70;99.90;;;;;;5083384;28;19928;-72
2022/08/27 00:16:40;;;;;;;;;;;25.60;99.90;;;;;;5066897;28;19934;-73
2022/08/27 00:19:06;;;;;;;;;;;25.60;99.90;;;;;;5084298;28;19927;-73
2022/08/27 00:21:32;;;;;;;;;;;25.60;99.90;;;;;;5083072;28;20567;-73
2022/08/27 00:23:58;;;;;;;;;;;25.70;99.90;;;;;;5081893;28;20015;-74
2022/08/27 00:26:23;;;;;;;;;;;25.60;99.90;;;;;;5086251;28;20277;-74
2022/08/27 00:28:49;;;;;;;;;;;25.70;99.90;;;;;;5076098;28;19908;-74
2022/08/27 00:31:15;;;;;;;;;;;25.70;99.90;;;;;;5112053;28;19908;-74
2022/08/27 00:33:42;;;;;;;;;;;25.70;99.90;;;;;;5095266;28;19915;-74
2022/08/27 00:36:08;;;;;;;;;;;25.70;99.90;;;;;;5088018;28;19912;-74
2022/08/27 00:38:34;;;;;;;;;;;25.70;99.90;;;;;;5083124;28;20123;-73
2022/08/27 00:41:00;;;;;;;;;;;25.70;99.90;;;;;;5083802;28;19912;-74
2022/08/27 00:43:30;;;;;;;;;;;25.70;99.90;;;;;;5082829;28;19920;-74
2022/08/27 00:46:06;;;;;;;;;;;25.80;99.90;;;;;;5083726;28;19912;-74
2022/08/27 00:48:34;;;;;;;;;;;25.70;99.90;;;;;;5104671;28;19916;-74
2022/08/27 00:50:59;;;;;;;;;;;25.70;99.90;;;;;;5077011;28;19908;-73
2022/08/27 00:53:28;;;;;;;;;;;25.70;99.90;;;;;;5087964;28;19958;-76
2022/08/27 00:55:55;;;;;;;;;;;25.60;99.90;;;;;;5069546;28;19912;-75
2022/08/27 00:58:21;;;;;;;;;;;25.60;99.90;;;;;;5071305;28;19913;-74
2022/08/27 01:00:47;;;;;;;;;;;25.70;99.90;;;;;;5088075;28;19942;-74
2022/08/27 01:03:13;;;;;;;;;;;25.80;99.90;;;;;;5087102;28;20433;-74
2022/08/27 01:05:39;;;;;;;;;;;25.80;99.90;;;;;;5086600;28;20736;-75
2022/08/27 01:08:08;;;;;;;;;;;25.60;99.90;;;;;;5086048;28;19915;-74
2022/08/27 01:10:34;;;;;;;;;;;25.60;99.90;;;;;;5085446;28;19990;-74
2022/08/27 01:13:00;;;;;;;;;;;25.50;99.90;;;;;;5072754;28;19912;-74
2022/08/27 01:15:26;;;;;;;;;;;25.40;99.90;;;;;;5085184;28;19966;-74
2022/08/27 01:17:53;;;;;;;;;;;25.40;99.90;;;;;;5087009;28;19916;-74
2022/08/27 01:20:20;;;;;;;;;;;25.30;99.90;;;;;;5086684;28;20447;-73
2022/08/27 01:22:54;;;;;;;;;;;25.40;99.90;;;;;;5086288;28;19973;-75
2022/08/27 01:25:22;;;;;;;;;;;25.40;99.90;;;;;;5085443;28;20394;-75
2022/08/27 01:27:48;;;;;;;;;;;25.50;99.90;;;;;;5086157;28;19958;-75
2022/08/27 01:30:14;;;;;;;;;;;25.60;99.90;;;;;;5088120;28;19912;-73
2022/08/27 01:32:41;;;;;;;;;;;25.60;99.90;;;;;;5087961;28;20319;-73
2022/08/27 01:35:08;;;;;;;;;;;25.60;99.90;;;;;;5086829;28;20277;-73
2022/08/27 01:37:34;;;;;;;;;;;25.60;99.90;;;;;;5085875;28;19920;-74
2022/08/27 01:40:00;;;;;;;;;;;25.60;99.90;;;;;;5091151;28;20292;-74
2022/08/27 01:42:29;;;;;;;;;;;25.60;99.90;;;;;;5104746;28;19908;-74
2022/08/27 01:44:55;;;;;;;;;;;25.50;99.90;;;;;;5104442;28;19919;-74
2022/08/27 01:47:22;;;;;;;;;;;25.30;99.90;;;;;;5093783;28;19948;-74
2022/08/27 01:49:48;;;;;;;;;;;25.20;99.90;;;;;;5092496;28;19959;-74
2022/08/27 01:52:15;;;;;;;;;;;25.00;99.90;;;;;;5085498;28;19916;-73
2022/08/27 01:54:41;;;;;;;;;;;25.00;99.90;;;;;;5084447;28;20007;-74
2022/08/27 01:57:07;;;;;;;;;;;24.90;99.90;;;;;;5084336;28;19920;-74
2022/08/27 01:59:33;;;;;;;;;;;25.00;99.90;;;;;;5087263;28;19912;-75
2022/08/27 02:02:01;;;;;;;;;;;25.30;99.90;;;;;;5097459;28;19934;-74
2022/08/27 02:04:26;;;;;;;;;;;25.30;99.90;;;;;;5097612;28;19927;-73
2022/08/27 02:06:52;;;;;;;;;;;25.30;99.90;;;;;;5099029;28;19948;-73
2022/08/27 02:09:17;;;;;;;;;;;25.30;99.90;;;;;;5103507;28;19915;-73
2022/08/27 02:11:43;;;;;;;;;;;25.40;99.90;;;;;;5116286;28;20015;-75
2022/08/27 02:14:09;;;;;;;;;;;25.40;99.90;;;;;;5103253;28;19943;-74
2022/08/27 02:16:35;;;;;;;;;;;25.40;99.90;;;;;;5089354;28;19935;-76
2022/08/27 02:19:02;;;;;;;;;;;25.50;99.90;;;;;;5088653;28;19912;-77
2022/08/27 02:21:27;;;;;;;;;;;25.50;99.90;;;;;;5086987;28;21301;-76
2022/08/27 02:23:54;;;;;;;;;;;25.40;99.90;;;;;;5087711;28;19923;-75
2022/08/27 02:26:20;;;;;;;;;;;25.30;99.90;;;;;;5087565;28;19986;-76
2022/08/27 02:28:46;;;;;;;;;;;25.30;99.90;;;;;;5086616;28;19912;-78
2022/08/27 02:31:11;;;;;;;;;;;25.30;99.90;;;;;;5073234;28;19916;-75
2022/08/27 02:33:37;;;;;;;;;;;25.30;99.90;;;;;;5089617;28;20397;-76
2022/08/27 02:36:03;;;;;;;;;;;25.30;99.90;;;;;;5068891;28;19916;-76
2022/08/27 02:38:28;;;;;;;;;;;25.40;99.90;;;;;;5086034;28;20442;-76
2022/08/27 02:40:54;;;;;;;;;;;25.40;99.90;;;;;;5086839;28;19912;-75
2022/08/27 02:43:20;;;;;;;;;;;25.40;99.90;;;;;;5087569;28;19912;-78
2022/08/27 02:45:45;;;;;;;;;;;25.40;99.90;;;;;;5093993;28;19983;-77
2022/08/27 02:48:11;;;;;;;;;;;25.40;99.90;;;;;;5094806;28;19947;-76
2022/08/27 02:50:37;;;;;;;;;;;25.40;99.90;;;;;;5099756;28;19912;-76
2022/08/27 02:53:04;;;;;;;;;;;25.40;99.90;;;;;;5093043;28;19912;-75
2022/08/27 02:55:30;;;;;;;;;;;25.40;99.90;;;;;;5089559;28;20029;-75
2022/08/27 02:57:55;;;;;;;;;;;25.30;99.90;;;;;;5091163;28;19913;-77
2022/08/27 03:00:22;;;;;;;;;;;25.30;99.90;;;;;;5088932;28;20292;-76
2022/08/27 03:02:48;;;;;;;;;;;25.30;99.90;;;;;;5066862;28;19928;-76
2022/08/27 03:05:14;;;;;;;;;;;25.40;99.90;;;;;;5094999;28;19916;-76
2022/08/27 03:07:40;;;;;;;;;;;25.40;99.90;;;;;;5103386;28;19932;-77
2022/08/27 03:10:07;;;;;;;;;;;25.30;99.90;;;;;;5106504;28;19937;-75
2022/08/27 03:12:35;;;;;;;;;;;25.20;99.90;;;;;;5107295;28;19900;-74
2022/08/27 03:15:04;;;;;;;;;;;25.10;99.90;;;;;;5103322;28;19927;-76
2022/08/27 03:20:14;;;;;;;;;;;25.00;99.90;;;;;;5100004;28;19928;-75
2022/08/27 03:22:41;;;;;;;;;;;25.00;99.90;;;;;;5102591;28;19912;-76
2022/08/27 03:25:07;;;;;;;;;;;25.00;99.90;;;;;;5103368;28;19927;-76
2022/08/27 03:27:32;;;;;;;;;;;25.00;99.90;;;;;;5105616;28;19923;-76
2022/08/27 03:30:00;;;;;;;;;;;25.00;99.90;;;;;;5128514;28;19900;-76
2022/08/27 03:32:26;;;;;;;;;;;25.00;99.90;;;;;;5107968;28;19975;-75
2022/08/27 03:34:52;;;;;;;;;;;25.00;99.90;;;;;;5102420;28;19931;-77
2022/08/27 03:37:17;;;;;;;;;;;25.00;99.90;;;;;;5103079;28;19924;-77
2022/08/27 03:39:43;;;;;;;;;;;24.90;99.90;;;;;;5105826;28;19912;-76
2022/08/27 03:42:09;;;;;;;;;;;25.00;99.90;;;;;;5128788;28;19915;-76
2022/08/27 03:44:34;;;;;;;;;;;25.00;99.90;;;;;;5114393;28;19977;-76
2022/08/27 03:47:00;;;;;;;;;;;25.00;99.90;;;;;;5108024;28;20224;-75
2022/08/27 03:49:25;;;;;;;;;;;25.00;99.90;;;;;;5098836;28;20022;-77
2022/08/27 03:51:52;;;;;;;;;;;25.00;99.90;;;;;;5084778;28;19912;-76
2022/08/27 03:54:17;;;;;;;;;;;25.00;99.90;;;;;;5087098;28;19912;-76
2022/08/27 03:56:43;;;;;;;;;;;24.90;99.90;;;;;;5088843;28;20003;-75
2022/08/27 03:59:09;;;;;;;;;;;25.00;99.90;;;;;;5086859;28;19921;-76
2022/08/27 04:01:35;;;;;;;;;;;24.90;99.90;;;;;;5087701;28;19919;-77
2022/08/27 04:04:00;;;;;;;;;;;25.00;99.90;;;;;;5086170;28;19920;-76
2022/08/27 04:06:27;;;;;;;;;;;25.00;99.90;;;;;;5085191;28;19912;-77
2022/08/27 04:08:52;;;;;;;;;;;24.90;99.90;;;;;;5086852;28;19920;-76
2022/08/27 04:11:18;;;;;;;;;;;24.90;99.90;;;;;;5086759;28;19920;-75
2022/08/27 04:13:44;;;;;;;;;;;24.80;99.90;;;;;;5086161;28;20250;-76
2022/08/27 04:16:09;;;;;;;;;;;24.80;99.90;;;;;;5085578;28;19927;-76
2022/08/27 04:18:35;;;;;;;;;;;24.90;99.90;;;;;;5085952;28;19912;-76
2022/08/27 04:21:06;;;;;;;;;;;24.90;99.90;;;;;;5084740;28;19923;-76
2022/08/27 04:23:32;;;;;;;;;;;24.90;99.90;;;;;;5086663;28;19919;-77
2022/08/27 04:25:59;;;;;;;;;;;24.90;99.90;;;;;;5085473;28;19923;-76
2022/08/27 04:28:25;;;;;;;;;;;24.90;99.90;;;;;;5073590;28;19965;-76
2022/08/27 04:30:50;;;;;;;;;;;24.90;99.90;;;;;;5070088;28;19924;-77
2022/08/27 04:33:16;;;;;;;;;;;25.00;99.90;;;;;;5065626;28;19912;-77
2022/08/27 04:35:41;;;;;;;;;;;25.00;99.90;;;;;;5083755;28;19912;-76
2022/08/27 04:38:07;;;;;;;;;;;25.00;99.90;;;;;;5087616;28;19922;-77
2022/08/27 04:43:19;;;;;;;;;;;25.00;99.90;;;;;;5083558;28;20062;-75
2022/08/27 04:45:46;;;;;;;;;;;25.10;99.90;;;;;;5084278;28;19920;-77
2022/08/27 04:48:12;;;;;;;;;;;25.10;99.90;;;;;;5083509;28;19913;-77
2022/08/27 04:50:41;;;;;;;;;;;25.10;99.90;;;;;;5085736;28;19934;-78
2022/08/27 04:53:08;;;;;;;;;;;25.10;99.90;;;;;;5088264;28;19919;-79
2022/08/27 04:55:39;;;;;;;;;;;25.10;99.90;;;;;;5086099;28;19919;-76
2022/08/27 04:58:04;;;;;;;;;;;25.10;99.90;;;;;;5084848;28;19931;-76
2022/08/27 05:00:30;;;;;;;;;;;25.20;99.90;;;;;;5086184;28;19912;-77
2022/08/27 05:02:56;;;;;;;;;;;25.30;99.90;;;;;;5086370;28;19934;-77
2022/08/27 05:05:22;;;;;;;;;;;25.20;99.90;;;;;;5090589;28;19966;-77
2022/08/27 05:07:47;;;;;;;;;;;25.20;99.90;;;;;;5088999;28;19952;-77
2022/08/27 05:10:13;;;;;;;;;;;25.30;99.90;;;;;;5067165;28;20014;-77
2022/08/27 05:12:39;;;;;;;;;;;25.40;99.90;;;;;;5085330;28;19966;-76
2022/08/27 05:15:04;;;;;;;;;;;25.40;99.90;;;;;;5084924;28;21525;-77
2022/08/27 05:17:31;;;;;;;;;;;25.50;99.90;;;;;;5083717;28;19919;-77
2022/08/27 05:19:57;;;;;;;;;;;25.60;99.90;;;;;;5080844;28;19916;-76
2022/08/27 05:22:23;;;;;;;;;;;25.60;99.90;;;;;;5087644;28;19916;-76
2022/08/27 05:24:48;;;;;;;;;;;25.70;99.90;;;;;;5086465;28;20389;-77
2022/08/27 05:27:14;;;;;;;;;;;25.70;99.90;;;;;;5086040;28;19912;-76
2022/08/27 05:29:40;;;;;;;;;;;25.70;99.90;;;;;;5087563;28;19913;-77
2022/08/27 05:32:05;;;;;;;;;;;25.70;99.90;;;;;;5090071;28;19941;-77
2022/08/27 05:34:31;;;;;;;;;;;25.60;99.90;;;;;;5098707;28;20400;-77
2022/08/27 05:36:56;;;;;;;;;;;25.60;99.90;;;;;;5094888;28;19916;-77
2022/08/27 05:39:22;;;;;;;;;;;25.70;99.90;;;;;;5075260;28;20368;-76
2022/08/27 05:41:47;;;;;;;;;;;25.80;99.90;;;;;;5108930;28;19908;-77
2022/08/27 05:44:14;;;;;;;;;;;25.80;99.90;;;;;;5101791;28;20230;-77
2022/08/27 05:46:40;;;;;;;;;;;25.80;99.90;;;;;;5104044;28;19948;-77
2022/08/27 05:49:05;;;;;;;;;;;25.90;99.90;;;;;;5106179;28;20017;-77
2022/08/27 05:51:33;;;;;;;;;;;26.00;99.90;;;;;;5088283;28;20392;-77
2022/08/27 05:54:03;;;;;;;;;;;25.90;99.90;;;;;;5087538;28;20806;-77
2022/08/27 05:56:31;;;;;;;;;;;25.90;99.90;;;;;;5086597;28;19912;-77
2022/08/27 06:01:43;;;;;;;;;;;25.90;99.90;;;;;;5093686;28;20087;-76
2022/08/27 06:04:10;;;;;;;;;;;26.00;99.90;;;;;;5093394;28;19931;-76
2022/08/27 06:06:36;;;;;;;;;;;26.00;99.90;;;;;;5087365;28;19920;-77
2022/08/27 06:09:02;;;;;;;;;;;26.10;99.90;;;;;;5091133;28;19912;-77
2022/08/27 06:11:27;;;;;;;;;;;26.20;99.90;;;;;;5087506;28;19913;-76
2022/08/27 06:13:54;;;;;;;;;;;26.30;99.90;;;;;;5086688;28;19912;-77
2022/08/27 06:16:20;;;;;;;;;;;26.30;99.90;;;;;;5086328;28;20204;-78
2022/08/27 06:18:47;;;;;;;;;;;26.30;99.90;;;;;;5088557;28;20250;-77
2022/08/27 06:21:13;;;;;;;;;;;26.40;99.90;;;;;;5088426;28;20133;-77
2022/08/27 06:23:39;;;;;;;;;;;26.50;99.90;;;;;;5068417;28;19951;-76
2022/08/27 06:26:06;;;;;;;;;;;26.60;99.90;;;;;;5084444;28;19959;-77
2022/08/27 06:28:32;;;;;;;;;;;26.70;99.90;;;;;;5068025;28;19936;-77
2022/08/27 06:31:04;;;;;;;;;;;26.60;99.90;;;;;;5084933;28;19923;-77
2022/08/27 06:33:30;;;;;;;;;;;26.70;99.90;;;;;;5084731;28;20354;-77
2022/08/27 06:36:04;;;;;;;;;;;26.80;99.90;;;;;;5084429;28;19919;-74
2022/08/27 06:38:30;;;;;;;;;;;26.90;99.90;;;;;;5084626;28;19918;-73
2022/08/27 06:40:56;;;;;;;;;;;26.90;99.90;;;;;;5083536;28;19912;-72
2022/08/27 06:43:23;;;;;;;;;;;27.00;99.90;;;;;;5083992;28;19951;-73
2022/08/27 06:45:49;;;;;;;;;;;27.00;99.90;;;;;;5070549;28;19974;-73
2022/08/27 06:48:14;;;;;;;;;;;27.10;99.90;;;;;;5090109;28;19916;-73
2022/08/27 06:50:40;;;;;;;;;;;27.20;99.90;;;;;;5094358;28;20409;-73
2022/08/27 06:53:06;;;;;;;;;;;27.30;99.90;;;;;;5073490;28;19912;-65
2022/08/27 06:55:32;;;;;;;;;;;27.30;99.90;;;;;;5093426;28;19916;-68
2022/08/27 06:57:57;;;;;;;;;;;27.40;99.90;;;;;;5073131;28;20025;-68
2022/08/27 07:00:24;;;;;;;;;;;27.40;99.90;;;;;;5095780;28;19912;-68
2022/08/27 07:02:49;;;;;;;;;;;27.40;99.90;;;;;;5092354;28;20019;-66
2022/08/27 07:05:16;;;;;;;;;;;27.60;99.90;;;;;;5092520;28;20007;-67
2022/08/27 07:07:41;;;;;;;;;;;27.70;99.90;;;;;;5092315;28;19908;-71
2022/08/27 07:10:07;;;;;;;;;;;27.70;99.90;;;;;;5089957;28;20010;-66
2022/08/27 07:12:33;;;;;;;;;;;27.70;99.90;;;;;;5092547;28;19908;-67
2022/08/27 07:14:58;;;;;;;;;;;27.90;99.90;;;;;;5090520;28;19916;-67
2022/08/27 07:17:24;;;;;;;;;;;27.90;99.90;;;;;;5079132;28;19945;-69
2022/08/27 07:19:50;;;;;;;;;;;28.10;99.90;;;;;;5095102;28;20358;-67
2022/08/27 07:22:15;;;;;;;;;;;28.10;99.90;;;;;;5089453;28;19918;-66
2022/08/27 07:24:41;;;;;;;;;;;28.20;99.90;;;;;;5096544;28;20227;-69
2022/08/27 07:27:06;;;;;;;;;;;28.30;99.90;;;;;;5085573;28;19912;-67
2022/08/27 07:29:32;;;;;;;;;;;28.40;99.90;;;;;;5087220;28;20002;-67
2022/08/27 07:31:58;;;;;;;;;;;28.50;99.90;;;;;;5102361;28;19933;-68
2022/08/27 07:34:23;;;;;;;;;;;28.50;99.90;;;;;;5103288;28;19912;-66
2022/08/27 07:36:50;;;;;;;;;;;28.60;99.90;;;;;;5109504;28;19918;-68
2022/08/27 07:39:15;;;;;;;;;;;28.70;99.90;;;;;;5103109;28;19912;-68
2022/08/27 07:44:26;;;;;;;;;;;28.70;99.90;;;;;;5094514;28;19922;-69
2022/08/27 07:46:53;;;;;;;;;;;28.70;99.90;;;;;;5084829;28;19920;-67
2022/08/27 07:49:19;;;;;;;;;;;28.70;99.90;;;;;;5072535;28;20285;-69
2022/08/27 07:51:44;;;;;;;;;;;28.60;99.90;;;;;;5087881;28;20098;-68
2022/08/27 07:54:10;;;;;;;;;;;28.60;99.90;;;;;;5087023;28;19916;-68
2022/08/27 07:56:36;;;;;;;;;;;28.70;99.90;;;;;;5085757;28;19923;-69
2022/08/27 07:59:02;;;;;;;;;;;28.70;99.90;;;;;;5082156;28;20388;-69
2022/08/27 08:01:28;;;;;;;;;;;28.70;99.90;;;;;;5069356;28;19920;-69
2022/08/27 08:03:54;;;;;;;;;;;28.90;99.90;;;;;;5089726;28;20385;-69
2022/08/27 08:06:20;;;;;;;;;;;28.90;99.90;;;;;;5093861;28;19912;-70
2022/08/27 08:08:45;;;;;;;;;;;28.90;99.90;;;;;;5086963;28;20286;-71
2022/08/27 08:11:12;;;;;;;;;;;28.90;99.90;;;;;;5090154;28;19924;-75
2022/08/27 08:13:38;;;;;;;;;;;28.90;99.90;;;;;;5090833;28;19908;-74
2022/08/27 08:16:05;;;;;;;;;;;29.00;99.90;;;;;;5090758;28;19942;-74
2022/08/27 08:18:31;;;;;;;;;;;28.60;99.90;;;;;;5087720;28;20003;-75
2022/08/27 08:21:00;;;;;;;;;;;28.40;99.90;;;;;;5088469;28;20326;-74
2022/08/27 08:23:27;;;;;;;;;;;28.30;99.90;;;;;;5096052;28;19926;-73
2022/08/27 08:25:53;;;;;;;;;;;28.30;99.90;;;;;;5090755;28;19916;-74
2022/08/27 08:28:18;;;;;;;;;;;28.30;99.90;;;;;;5090682;28;19919;-75
2022/08/27 08:30:45;;;;;;;;;;;28.30;99.90;;;;;;5088915;28;19912;-75
2022/08/27 08:33:12;;;;;;;;;;;28.40;99.90;;;;;;5111166;28;19973;-74
2022/08/27 08:35:38;;;;;;;;;;;28.50;99.90;;;;;;5101364;28;19972;-75
2022/08/27 08:38:04;;;;;;;;;;;28.50;99.90;;;;;;5066595;28;20518;-74
2022/08/27 08:40:31;;;;;;;;;;;28.70;99.90;;;;;;5090688;28;20319;-74
2022/08/27 08:42:56;;;;;;;;;;;28.70;99.90;;;;;;5090789;28;19909;-73
2022/08/27 08:45:26;;;;;;;;;;;28.60;99.90;;;;;;5091348;28;19920;-76
2022/08/27 08:48:02;;;;;;;;;;;28.60;99.90;;;;;;5088751;28;19912;-75
2022/08/27 08:50:33;;;;;;;;;;;28.60;99.90;;;;;;5074793;28;20270;-74
2022/08/27 08:53:18;;;;;;;;;;;28.60;99.90;;;;;;5100807;28;19965;-75
2022/08/27 08:55:53;;;;;;;;;;;28.70;99.90;;;;;;5082272;28;20306;-74
2022/08/27 08:58:22;;;;;;;;;;;28.70;99.90;;;;;;5064605;28;20387;-68
2022/08/27 09:00:53;;;;;;;;;;;28.80;99.90;;;;;;5087182;28;20003;-66
2022/08/27 09:03:18;;;;;;;;;;;28.90;99.90;;;;;;5101323;28;19916;-68
2022/08/27 09:05:46;;;;;;;;;;;29.00;99.90;;;;;;5105414;28;20584;-68
2022/08/27 09:08:14;;;;;;;;;;;29.00;99.90;;;;;;5092516;28;19939;-69
2022/08/27 09:10:42;;;;;;;;;;;29.00;99.90;;;;;;5094975;28;20203;-69
2022/08/27 09:13:17;;;;;;;;;;;29.00;99.90;;;;;;5092690;28;19966;-69
2022/08/27 09:15:42;;;;;;;;;;;29.10;99.90;;;;;;5098174;28;19919;-67
2022/08/27 09:18:10;;;;;;;;;;;29.20;99.90;;;;;;5092532;28;19912;-68
2022/08/27 09:20:37;;;;;;;;;;;29.20;99.90;;;;;;5092376;28;20286;-68
2022/08/27 09:23:05;;;;;;;;;;;29.20;99.90;;;;;;5098660;28;19916;-67
2022/08/27 09:25:32;;;;;;;;;;;29.10;99.90;;;;;;5099855;28;19912;-70
2022/08/27 09:28:00;;;;;;;;;;;29.00;99.90;;;;;;5094111;28;20007;-68
2022/08/27 09:30:27;;;;;;;;;;;28.90;99.90;;;;;;5090099;28;19998;-67
2022/08/27 09:33:00;;;;;;;;;;;28.80;99.90;;;;;;5089658;28;20289;-67
2022/08/27 09:35:27;;;;;;;;;;;28.80;99.90;;;;;;5090489;28;20439;-68
2022/08/27 09:37:54;;;;;;;;;;;28.70;99.90;;;;;;5088554;28;19927;-67
2022/08/27 09:40:26;;;;;;;;;;;28.60;99.90;;;;;;5099411;28;19912;-67
2022/08/27 09:42:54;;;;;;;;;;;28.80;99.90;;;;;;5103611;28;19999;-69
2022/08/27 09:45:28;;;;;;;;;;;28.80;99.90;;;;;;5097258;28;19916;-67
2022/08/27 09:48:01;;;;;;;;;;;28.90;99.90;;;;;;5082252;28;19920;-70
2022/08/27 09:50:32;;;;;;;;;;;28.90;99.90;;;;;;5082524;28;20390;-69
2022/08/27 09:52:58;;;;;;;;;;;28.90;99.90;;;;;;5090366;28;19908;-68
2022/08/27 09:55:25;;;;;;;;;;;28.90;99.90;;;;;;5091862;28;21221;-67
2022/08/27 09:57:51;;;;;;;;;;;28.80;99.90;;;;;;5093159;28;19977;-67
2022/08/27 10:00:17;;;;;;;;;;;28.90;99.90;;;;;;5113551;28;19980;-70
2022/08/27 10:02:50;;;;;;;;;;;29.00;99.90;;;;;;5109904;28;19931;-70
2022/08/27 10:05:21;;;;;;;;;;;29.00;99.90;;;;;;5090198;28;19911;-67
2022/08/27 10:07:55;;;;;;;;;;;29.10;99.90;;;;;;5113673;28;19987;-69
2022/08/27 10:10:21;;;;;;;;;;;29.20;99.90;;;;;;5114903;28;19908;-69
2022/08/27 10:12:50;;;;;;;;;;;29.40;99.90;;;;;;5114027;28;20384;-67
2022/08/27 10:15:17;;;;;;;;;;;29.50;99.90;;;;;;5104304;28;19908;-68
2022/08/27 10:17:45;;;;;;;;;;;29.50;99.90;;;;;;5101473;28;19916;-69
2022/08/27 10:20:20;;;;;;;;;;;29.50;99.90;;;;;;5110433;28;19915;-68
2022/08/27 10:22:54;;;;;;;;;;;29.70;99.90;;;;;;5088875;28;19908;-68
2022/08/27 10:25:20;;;;;;;;;;;29.70;99.90;;;;;;5086886;28;20006;-69
2022/08/27 10:28:01;;;;;;;;;;;29.70;99.90;;;;;;5097441;28;20370;-68
2022/08/27 10:30:34;;;;;;;;;;;29.70;99.90;;;;;;5112989;28;19918;-71
2022/08/27 10:32:59;;;;;;;;;;;29.90;99.90;;;;;;5107177;28;19912;-69
2022/08/27 10:35:27;;;;;;;;;;;29.90;99.90;;;;;;5090986;28;19958;-67
2022/08/27 10:37:58;;;;;;;;;;;30.00;99.90;;;;;;5100294;28;20014;-67
2022/08/27 10:40:23;;;;;;;;;;;29.90;99.90;;;;;;5077139;28;19912;-67
2022/08/27 10:42:49;;;;;;;;;;;29.80;99.90;;;;;;5109210;28;20386;-70
2022/08/27 10:45:33;;;;;;;;;;;29.70;99.90;;;;;;5100497;28;19977;-71
2022/08/27 10:48:15;;;;;;;;;;;29.70;99.90;;;;;;5086589;28;19919;-68
2022/08/27 10:50:56;;;;;;;;;;;29.80;99.90;;;;;;5090056;28;20000;-70
2022/08/27 10:53:34;;;;;;;;;;;29.80;99.90;;;;;;5090169;28;19958;-70
2022/08/27 10:56:25;;;;;;;;;;;29.70;99.90;;;;;;5091330;28;19996;-70
2022/08/27 10:58:51;;;;;;;;;;;29.80;99.90;;;;;;5109507;28;19908;-68
2022/08/27 11:01:16;;;;;;;;;;;29.90;99.90;;;;;;5105962;28;19911;-69
2022/08/27 11:03:51;;;;;;;;;;;29.70;99.90;;;;;;5110230;28;19966;-70
2022/08/27 11:06:29;;;;;;;;;;;29.50;99.90;;;;;;5085016;28;20004;-70
2022/08/27 11:09:16;;;;;;;;;;;29.10;99.90;;;;;;5095138;28;20459;-71
2022/08/27 11:11:43;;;;;;;;;;;28.60;99.90;;;;;;5092410;28;19912;-70
2022/08/27 11:14:14;;;;;;;;;;;28.50;99.90;;;;;;5107316;28;19915;-70
2022/08/27 11:16:44;;;;;;;;;;;28.50;99.90;;;;;;5082363;28;20553;-70
2022/08/27 11:19:18;;;;;;;;;;;28.50;99.90;;;;;;5088140;28;19963;-69
2022/08/27 11:21:52;;;;;;;;;;;28.40;99.90;;;;;;5112767;28;20447;-69
2022/08/27 11:24:31;;;;;;;37.00;30.53;;;27.70;99.90;;;;;;5100681;28;20439;-67
2022/08/27 11:27:03;;;;;;;53.17;29.67;;;26.50;99.90;;;;;;5085280;28;20020;-68
2022/08/27 11:29:32;;;;;;;40.38;28.63;;;25.80;99.90;;;;;;5069809;28;20482;-69
2022/08/27 11:32:09;;;;;;;34.17;30.33;;;25.30;99.90;;;;;;5095082;28;20031;-68
2022/08/27 11:34:54;;;;;;;32.85;29.35;;;24.90;99.90;;;;;;5115132;28;20024;-69
2022/08/27 11:37:38;;;;;;;29.25;26.15;;;24.70;99.90;;;;;;5100179;28;20525;-66
2022/08/27 11:40:17;;;;;;;32.50;28.13;;;24.80;99.90;;;;;;5094382;28;20135;-67
2022/08/27 11:42:54;;;;;;;29.00;26.15;;;25.00;99.90;;;;;;5093886;28;20054;-68
2022/08/27 11:45:23;;;;;;;29.13;25.98;;;25.20;99.90;;;;;;5068695;28;20024;-67
2022/08/27 11:48:01;;;;;;;32.55;24.70;;;25.50;99.90;;;;;;5097554;28;20493;-67
2022/08/27 11:50:32;;;;;;;28.95;25.33;;;25.60;99.90;;;;;;5085023;28;20020;-69
2022/08/27 11:53:00;;;;;;;;;;;25.90;99.90;;;;;;5091743;28;20135;-68
2022/08/27 11:55:38;;;;;;;28.65;25.05;;;26.10;99.90;;;;;;5091473;28;19908;-68
2022/08/27 11:58:05;;;;;;;29.85;23.95;;;26.10;99.90;;;;;;5108849;28;21624;-68
2022/08/27 12:00:37;;;;;;;28.58;24.63;;;26.20;99.90;;;;;;5094349;28;20417;-67
2022/08/27 12:03:09;;;;;;;31.38;23.70;;;26.20;99.90;;;;;;5090698;28;20038;-67
2022/08/27 12:06:08;;;;;;;26.88;24.13;;;26.20;99.90;;;;;;5089827;28;20027;-66
2022/08/27 12:08:35;;;;;;;26.77;24.00;;;26.30;99.90;;;;;;5077260;28;20036;-67
2022/08/27 12:11:18;;;;;;;33.72;27.17;;;26.20;99.90;;;;;;5091223;28;20085;-67
2022/08/27 12:14:05;;;;;;;29.15;26.02;;;26.20;99.90;;;;;;5092211;28;20104;-67
2022/08/27 12:16:42;;;;;;;30.50;25.95;;;26.20;99.90;;;;;;5084972;28;20088;-68
2022/08/27 12:19:35;;;;;;;40.15;27.88;;;26.20;99.90;;;;;;5082947;28;20024;-68
2022/08/27 12:22:16;;;;;;;37.58;32.08;;;26.30;99.90;;;;;;5069916;28;20108;-68
2022/08/27 12:24:50;;;;;;;31.63;28.42;;;26.40;99.90;;;;;;5078275;28;20032;-67
2022/08/27 12:27:25;;;;;;;36.97;32.35;;;26.40;99.90;;;;;;5081796;28;20028;-68
2022/08/27 12:29:58;;;;;;;36.08;30.13;;;26.40;99.90;;;;;;5088115;28;20389;-68
2022/08/27 12:32:43;;;;;;;39.22;32.58;;;26.40;99.90;;;;;;5102868;28;20043;-68
2022/08/27 12:35:27;;;;;;;33.95;26.92;;;26.40;99.90;;;;;;5090437;28;20787;-69
2022/08/27 12:38:15;;;;;;;41.67;30.90;;;26.40;99.90;;;;;;5085335;28;20035;-68
2022/08/27 12:40:52;;;;;;;33.85;28.75;;;26.20;99.90;;;;;;5090429;28;20031;-70
2022/08/27 12:43:24;;;;;;;31.15;27.13;;;26.10;99.90;;;;;;5074992;28;20027;-68
2022/08/27 12:45:59;;;;;;;33.17;25.30;;;25.80;99.90;;;;;;5091610;28;20035;-70
2022/08/27 12:48:31;;;;;;;27.92;25.08;;;25.60;99.90;;;;;;5084241;28;20020;-67
2022/08/27 12:51:02;;;;;;;29.33;24.33;;;25.50;99.90;;;;;;5098468;28;20016;-68
2022/08/27 12:53:45;;;;;;;;;;;25.50;99.90;;;;;;5093232;28;20035;-68
2022/08/27 12:56:21;;;;;;;25.83;15.77;;;25.20;99.90;;;;;;5096471;28;19951;-69
2022/08/27 12:58:53;;;;;;;16.90;15.18;;;25.10;99.90;;;;;;5094072;28;20077;-68
2022/08/27 13:01:33;;;;;;;;;;;25.20;99.90;;;;;;5094706;28;20043;-69
2022/08/27 13:04:04;;;;;;;16.73;13.55;;;25.10;99.90;;;;;;5093167;28;19998;-68
2022/08/27 13:06:33;;;;;;;21.27;14.95;;;25.00;99.90;;;;;;5093991;28;20422;-70
2022/08/27 13:09:05;;;;;;;19.42;14.40;;;25.00;99.90;;;;;;5093921;28;20401;-69
2022/08/27 13:11:34;;;;;;;21.42;15.05;;;24.80;99.90;;;;;;5094100;28;20069;-69
2022/08/27 13:14:09;;;;;;;17.50;15.02;;;24.80;99.90;;;;;;5093309;28;20029;-69
2022/08/27 13:16:37;;;;;;;17.52;14.35;;;24.80;99.90;;;;;;5091744;28;20024;-68
2022/08/27 13:19:05;;;;;;;17.13;13.43;;;24.80;99.90;;;;;;5093233;28;20501;-68
2022/08/27 13:21:31;;;;;;;14.82;12.80;;;24.80;99.90;;;;;;5092760;28;20028;-69
2022/08/27 13:24:04;;;;;;;16.50;11.57;;;24.70;99.90;;;;;;5070623;28;20035;-68
2022/08/27 13:26:35;;;;;;;13.32;11.95;;;24.60;99.90;;;;;;5093376;28;20031;-71
2022/08/27 13:29:04;;;;;;;16.23;11.33;;;24.50;99.90;;;;;;5089126;28;20027;-69
2022/08/27 13:31:30;;;;;;;15.77;12.38;;;24.50;99.90;;;;;;5074718;28;20119;-69
2022/08/27 13:33:57;;;;;;;13.25;11.95;;;24.60;99.90;;;;;;5089019;28;20032;-69
2022/08/27 13:36:56;;;;;;;18.85;13.45;;;24.70;99.90;;;;;;5092867;28;20028;-68
2022/08/27 13:39:22;;;;;;;12.77;10.38;;;24.80;99.90;;;;;;5069192;28;20036;-67
2022/08/27 13:41:49;;;;;;;13.27;11.85;;;24.90;99.90;;;;;;5093233;28;20358;-69
2022/08/27 13:44:18;;;;;;;13.27;12.05;;;24.80;99.90;;;;;;5091684;28;20070;-71
2022/08/27 13:46:48;;;;;;;14.98;13.10;;;24.80;99.90;;;;;;5092887;28;20091;-69
2022/08/27 13:49:21;;;;;;;23.65;13.57;;;24.90;99.90;;;;;;5090661;28;20482;-68
2022/08/27 13:51:48;;;;;;;21.95;12.52;;;24.70;99.90;;;;;;5087587;28;20028;-70
2022/08/27 13:54:17;;;;;;;25.63;13.07;;;24.60;99.90;;;;;;5077999;28;20474;-67
2022/08/27 13:56:46;;;;;;;16.70;13.88;;;24.60;99.90;;;;;;5094813;28;20117;-67
2022/08/27 13:59:22;;;;;;;23.10;13.30;;;24.60;99.90;;;;;;5092827;28;20068;-68
2022/08/27 14:02:10;;;;;;;15.95;13.00;;;24.90;99.90;;;;;;5092342;28;20027;-68
2022/08/27 14:04:39;;;;;;;14.77;13.23;;;25.10;99.90;;;;;;5085992;28;20054;-68
2022/08/27 14:07:36;;;;;;;15.25;11.35;;;25.30;99.90;;;;;;5090981;28;20043;-68
2022/08/27 14:10:07;;;;;;;20.55;13.32;;;25.40;99.90;;;;;;5072857;28;20032;-68
2022/08/27 14:12:39;;;;;;;12.27;10.23;;;25.60;99.90;;;;;;5093008;28;20567;-68
2022/08/27 14:15:19;;;;;;;14.95;11.63;;;25.90;99.90;;;;;;5088844;28;20035;-69